Time;durP1;ratioP1;P1;durP2;ratioP2;P2;SDS_P1;SDS_P2;PMS_P1;PMS_P2;Temp;Humidity;BMP_temperature;BMP_pressure;BME280_temperature;BME280_humidity;BME280_pressure;Samples;Min_cycle;Max_cycle;Signal;HPM_P1;HPM_P2
2023/03/28 00:01:05;;;;;;;11.20;6.30;;;;;;;24.76;28.64;98494.17;108214;1253;72297;-66
2023/03/28 00:03:41;;;;;;;10.80;6.30;;;;;;;25.06;28.23;98495.12;108130;1253;71608;-65
2023/03/28 00:06:11;;;;;;;11.30;6.00;;;;;;;24.87;28.31;98491.79;108172;1257;73082;-66
2023/03/28 00:08:38;;;;;;;10.00;6.40;;;;;;;24.49;28.69;98492.58;108175;1253;62127;-64
2023/03/28 00:11:19;;;;;;;11.20;6.80;;;;;;;24.43;28.96;98495.52;108207;1253;61219;-65
2023/03/28 00:13:59;;;;;;;12.90;6.30;;;;;;;24.48;28.88;98500.38;108167;1253;75110;-67
2023/03/28 00:16:31;;;;;;;13.30;7.80;;;;;;;24.58;28.78;98501.55;108142;1253;70087;-65
2023/03/28 00:18:59;;;;;;;;;;;;;;;24.53;28.78;98504.16;108223;1253;72262;-67
2023/03/28 00:21:28;;;;;;;12.20;7.00;;;;;;;24.19;29.14;98500.48;108327;1255;62299;-67
2023/03/28 00:24:00;;;;;;;10.40;6.40;;;;;;;24.07;29.29;98497.59;108243;1252;60417;-67
2023/03/28 00:26:29;;;;;;;11.90;6.20;;;;;;;24.60;28.80;98490.52;108252;1253;73188;-65
2023/03/28 00:28:55;;;;;;;12.00;7.40;;;;;;;24.58;28.72;98489.34;108245;1254;70248;-66
2023/03/28 00:31:24;;;;;;;12.50;7.00;;;;;;;24.50;28.83;98485.83;108164;1256;73551;-67
2023/03/28 00:33:51;;;;;;;11.00;7.10;;;;;;;24.50;28.93;98482.84;108248;1254;62796;-66
2023/03/28 00:36:21;;;;;;;12.20;7.30;;;;;;;24.49;28.95;98486.27;108276;1254;60358;-65
2023/03/28 00:38:52;;;;;;;10.00;6.40;;;;;;;24.55;28.81;98485.73;108242;1254;73075;-65
2023/03/28 00:41:20;;;;;;;10.50;6.40;;;;;;;24.56;28.79;98482.22;108180;1253;70564;-65
2023/03/28 00:43:54;;;;;;;10.10;6.70;;;;;;;24.22;29.26;98481.23;108288;1254;71768;-66
2023/03/28 00:46:21;;;;;;;12.40;7.00;;;;;;;24.17;29.45;98478.67;108200;1253;62772;-67
2023/03/28 00:49:02;;;;;;;12.20;6.80;;;;;;;24.40;29.03;98476.08;108149;1253;60621;-67
2023/03/28 00:51:40;;;;;;;13.00;6.50;;;;;;;24.84;28.64;98473.07;108238;1254;73266;-66
2023/03/28 00:54:08;;;;;;;10.50;6.70;;;;;;;24.73;28.66;98475.58;108210;1254;68895;-66
2023/03/28 00:56:38;;;;;;;9.80;6.40;;;;;;;24.49;29.00;98472.85;108028;1253;72723;-65
2023/03/28 00:59:07;;;;;;;11.80;6.60;;;;;;;24.40;29.18;98469.50;107912;1253;62673;-66
2023/03/28 01:01:34;;;;;;;14.80;7.10;;;;;;;24.55;28.91;98467.88;108079;1254;60445;-67
2023/03/28 01:04:04;;;;;;;10.60;6.90;;;;;;;24.68;28.93;98464.23;108022;1254;74053;-66
2023/03/28 01:06:36;;;;;;;13.20;7.30;;;;;;;24.88;28.67;98463.42;108104;1257;70445;-67
2023/03/28 01:09:06;;;;;;;10.80;7.00;;;;;;;24.89;28.71;98455.23;108143;1257;71474;-65
2023/03/28 01:11:37;;;;;;;11.70;7.40;;;;;;;24.90;28.79;98452.40;108074;1260;61793;-67
2023/03/28 01:14:08;;;;;;;10.90;6.20;;;;;;;24.88;28.73;98450.54;108074;1254;61206;-67
2023/03/28 01:16:40;;;;;;;11.20;7.40;;;;;;;24.89;28.67;98444.96;108185;1253;72162;-66
2023/03/28 01:19:11;;;;;;;14.90;7.70;;;;;;;24.83;28.89;98443.73;108065;1259;68895;-66
2023/03/28 01:22:22;;;;;;;11.20;7.10;;;;;;;24.71;29.01;98442.71;108060;1253;72852;-67
2023/03/28 01:25:28;;;;;;;11.60;6.90;;;;;;;24.73;28.99;98444.04;107895;1254;63039;-67
2023/03/28 01:28:03;;;;;;;11.00;6.50;;;;;;;24.78;28.98;98443.46;107899;1257;60528;-65
2023/03/28 01:30:46;;;;;;;13.20;7.60;;;;;;;24.78;29.20;98440.11;107990;1258;75111;-66
2023/03/28 01:33:57;;;;;;;12.60;7.80;;;;;;;24.67;29.36;98432.45;107843;1254;71052;-66
2023/03/28 01:36:35;;;;;;;10.50;7.40;;;;;;;24.87;29.09;98426.83;108246;1256;72783;-67
2023/03/28 01:39:11;;;;;;;10.80;7.40;;;;;;;24.74;29.24;98429.63;108023;1254;62431;-66
2023/03/28 01:42:04;;;;;;;11.70;6.80;;;;;;;24.66;29.42;98422.91;108095;1254;61530;-65
2023/03/28 01:44:46;;;;;;;10.50;7.00;;;;;;;24.65;29.47;98426.84;108024;1257;73290;-67
2023/03/28 01:47:17;;;;;;;12.10;7.10;;;;;;;24.47;29.66;98431.27;108048;1258;71157;-66
2023/03/28 01:49:48;;;;;;;12.00;7.00;;;;;;;24.62;29.70;98427.91;108063;1254;72741;-66
2023/03/28 01:52:19;;;;;;;10.20;6.30;;;;;;;24.50;29.72;98425.39;108070;1254;61645;-67
2023/03/28 01:54:59;;;;;;;12.20;8.00;;;;;;;24.48;29.88;98419.19;107970;1253;60912;-66
2023/03/28 01:57:45;;;;;;;12.20;7.60;;;;;;;24.47;30.08;98409.59;108150;1256;74938;-66
2023/03/28 02:00:20;;;;;;;11.70;7.40;;;;;;;24.66;29.85;98401.25;108109;1254;71448;-66
2023/03/28 02:03:23;;;;;;;13.10;8.20;;;;;;;24.90;29.57;98395.02;107975;1254;72896;-65
2023/03/28 02:06:01;;;;;;;14.30;7.80;;;;;;;24.67;29.95;98389.76;108156;1254;61496;-65
2023/03/28 02:08:31;;;;;;;15.60;8.90;;;;;;;24.57;30.31;98395.09;107897;1254;60818;-66
2023/03/28 02:11:19;;;;;;;15.20;7.60;;;;;;;24.75;30.29;98414.20;108003;1254;74695;-67
2023/03/28 02:14:05;;;;;;;13.70;8.20;;;;;;;24.57;30.51;98414.10;107949;1254;71276;-68
2023/03/28 02:16:53;;;;;;;14.50;8.50;;;;;;;24.91;30.14;98400.73;107998;1261;73140;-66
2023/03/28 02:19:38;;;;;;;13.70;7.70;;;;;;;24.55;30.53;98392.16;108191;1258;61483;-68
2023/03/28 02:22:33;;;;;;;13.80;8.10;;;;;;;24.18;31.18;98388.70;108186;1255;60362;-67
2023/03/28 02:25:23;;;;;;;14.20;8.70;;;;;;;24.42;30.97;98389.21;108129;1259;73537;-66
2023/03/28 02:28:23;;;;;;;13.40;7.90;;;;;;;24.45;30.81;98393.72;108303;1254;70545;-65
2023/03/28 02:31:12;;;;;;;12.70;7.80;;;;;;;24.61;30.73;98393.04;107978;1254;71304;-67
2023/03/28 02:33:41;;;;;;;15.90;8.30;;;;;;;24.74;30.61;98389.75;108243;1256;60345;-66
2023/03/28 02:36:22;;;;;;;11.10;8.20;;;;;;;24.88;30.43;98382.85;108073;1253;60482;-67
2023/03/28 02:39:08;;;;;;;11.40;7.20;;;;;;;24.90;30.54;98373.60;107977;1254;74645;-67
2023/03/28 02:41:40;;;;;;;14.10;8.40;;;;;;;25.12;30.03;98371.39;108069;1255;70963;-65
2023/03/28 02:44:22;;;;;;;12.70;8.10;;;;;;;24.99;30.31;98367.48;108130;1254;72465;-66
2023/03/28 02:47:30;;;;;;;12.90;7.80;;;;;;;25.04;30.09;98370.06;108022;1255;62750;-66
2023/03/28 02:50:16;;;;;;;11.10;8.20;;;;;;;24.99;30.11;98366.93;107778;1253;61259;-66
2023/03/28 02:52:55;;;;;;;13.20;8.90;;;;;;;24.67;30.65;98359.77;107981;1253;72773;-67
2023/03/28 02:55:46;;;;;;;12.00;8.10;;;;;;;24.52;30.81;98365.06;108179;1254;70455;-66
2023/03/28 02:58:36;;;;;;;;;;;;;;;24.28;31.14;98363.09;108169;1255;73704;-67
2023/03/28 03:01:07;;;;;;;12.20;9.00;;;;;;;24.00;31.54;98371.13;108150;1254;62840;-66
2023/03/28 03:03:35;;;;;;;10.50;6.90;;;;;;;23.60;32.08;98359.81;108109;1257;60864;-67
2023/03/28 03:06:03;;;;;;;15.40;9.50;;;;;;;24.14;31.37;98354.02;108142;1253;74069;-68
2023/03/28 03:08:30;;;;;;;16.40;10.20;;;;;;;24.46;31.14;98353.69;108108;1254;70547;-66
2023/03/28 03:10:57;;;;;;;16.20;10.40;;;;;;;24.47;31.16;98350.91;108089;1256;73215;-68
2023/03/28 03:13:24;;;;;;;18.80;10.80;;;;;;;24.28;31.26;98347.83;108107;1254;63445;-69
2023/03/28 03:15:54;;;;;;;17.90;10.70;;;;;;;23.93;31.68;98344.84;108051;1253;59202;-65
2023/03/28 03:18:25;;;;;;;16.10;10.30;;;;;;;23.86;31.92;98344.20;108107;1254;73943;-66
2023/03/28 03:20:52;;;;;;;14.40;9.20;;;;;;;23.96;31.82;98339.22;108131;1254;72135;-67
2023/03/28 03:23:26;;;;;;;14.50;9.30;;;;;;;23.84;32.08;98339.42;108063;1254;73648;-67
2023/03/28 03:25:55;;;;;;;15.60;10.50;;;;;;;24.12;31.49;98334.27;108109;1254;62012;-67
2023/03/28 03:28:29;;;;;;;20.20;11.20;;;;;;;24.28;31.33;98322.58;108080;1254;60394;-68
2023/03/28 03:30:57;;;;;;;17.80;10.20;;;;;;;24.18;31.56;98316.54;108169;1254;73516;-66
2023/03/28 03:33:50;;;;;;;20.10;12.60;;;;;;;24.35;31.46;98312.52;107949;1254;69860;-66
2023/03/28 03:36:25;;;;;;;17.90;11.40;;;;;;;24.39;31.31;98311.57;108091;1253;73489;-66
2023/03/28 03:38:53;;;;;;;18.30;11.60;;;;;;;24.42;31.45;98305.41;108059;1259;62012;-66
2023/03/28 03:41:21;;;;;;;22.50;12.10;;;;;;;24.40;31.35;98302.89;108165;1254;60326;-67
2023/03/28 03:43:50;;;;;;;22.10;13.10;;;;;;;24.28;31.48;98304.86;108060;1254;74000;-67
2023/03/28 03:46:17;;;;;;;22.90;13.50;;;;;;;24.46;31.40;98302.30;108104;1254;68448;-66
2023/03/28 03:48:45;;;;;;;20.00;12.00;;;;;;;24.19;31.66;98303.64;108062;1253;72685;-66
2023/03/28 03:51:17;;;;;;;19.90;11.50;;;;;;;24.09;31.90;98307.73;108040;1253;62738;-66
2023/03/28 03:53:43;;;;;;;20.60;10.90;;;;;;;24.18;31.57;98309.44;108074;1254;60404;-65
2023/03/28 03:56:12;;;;;;;20.40;11.80;;;;;;;24.06;31.74;98309.50;108193;1254;73150;-67
2023/03/28 03:58:53;;;;;;;17.20;11.50;;;;;;;24.33;31.56;98311.39;108251;1254;70639;-69
2023/03/28 04:01:28;;;;;;;22.90;12.90;;;;;;;24.12;31.79;98315.56;108195;1254;72087;-68
2023/03/28 04:03:58;;;;;;;21.20;13.60;;;;;;;24.09;32.10;98317.55;108227;1254;61294;-67
2023/03/28 04:06:33;;;;;;;20.10;12.10;;;;;;;23.97;32.10;98317.06;108197;1254;60218;-67
2023/03/28 04:09:09;;;;;;;20.60;12.10;;;;;;;24.15;31.88;98305.95;108183;1253;73164;-67
2023/03/28 04:11:54;;;;;;;14.70;8.60;;;;;;;24.46;31.69;98302.16;108184;1253;70935;-71
2023/03/28 04:14:21;;;;;;;21.10;12.40;;;;;;;24.47;31.54;98296.62;108191;1254;71466;-67
2023/03/28 04:16:52;;;;;;;21.10;12.80;;;;;;;24.20;31.83;98290.21;108217;1257;62555;-68
2023/03/28 04:19:23;;;;;;;20.30;12.60;;;;;;;24.06;31.95;98289.02;108236;1253;60290;-65
2023/03/28 04:21:51;;;;;;;21.80;12.90;;;;;;;23.80;32.30;98289.30;108184;1254;73869;-64
2023/03/28 04:24:23;;;;;;;21.40;13.90;;;;;;;23.98;32.30;98278.16;108248;1254;71162;-67
2023/03/28 04:27:09;;;;;;;24.90;14.10;;;;;;;23.98;32.39;98273.86;108188;1256;73288;-67
2023/03/28 04:29:36;;;;;;;51.30;21.40;;;;;;;23.91;32.56;98273.65;108167;1254;61028;-67
2023/03/28 04:32:28;;;;;;;40.60;18.30;;;;;;;23.86;32.68;98270.02;108177;1254;60450;-68
2023/03/28 04:35:07;;;;;;;23.90;13.30;;;;;;;23.70;32.91;98266.35;108215;1257;74648;-68
2023/03/28 04:37:36;;;;;;;19.20;12.40;;;;;;;23.66;32.83;98270.10;108185;1254;70543;-68
2023/03/28 04:40:10;;;;;;;23.30;12.60;;;;;;;23.77;32.73;98266.96;108169;1254;73743;-68
2023/03/28 04:42:49;;;;;;;19.60;11.50;;;;;;;23.77;32.87;98255.18;108169;1252;61458;-67
2023/03/28 04:45:27;;;;;;;19.30;13.20;;;;;;;23.57;33.15;98252.53;108219;1254;61601;-67
2023/03/28 04:47:55;;;;;;;25.00;12.90;;;;;;;23.63;32.92;98253.27;108189;1254;73029;-67
2023/03/28 04:50:22;;;;;;;17.50;10.70;;;;;;;23.72;32.93;98256.30;108272;1254;69583;-68
2023/03/28 04:52:50;;;;;;;24.10;13.80;;;;;;;23.98;32.59;98255.59;108222;1254;73613;-67
2023/03/28 04:55:18;;;;;;;30.10;16.40;;;;;;;23.73;32.82;98252.80;108114;1252;63362;-66
2023/03/28 04:57:49;;;;;;;26.70;15.10;;;;;;;23.89;32.44;98242.73;108234;1254;60451;-66
2023/03/28 05:00:17;;;;;;;22.00;14.20;;;;;;;23.80;32.69;98242.45;108233;1254;74840;-67
2023/03/28 05:03:35;;;;;;;27.00;14.50;;;;;;;23.49;33.14;98246.02;108095;1254;71283;-67
2023/03/28 05:06:03;;;;;;;26.10;14.40;;;;;;;23.57;33.01;98242.15;108052;1258;73664;-67
2023/03/28 05:08:31;;;;;;;27.00;14.10;;;;;;;23.77;32.61;98244.58;108171;1253;63276;-68
2023/03/28 05:10:58;;;;;;;25.70;13.00;;;;;;;23.82;32.52;98238.23;108073;1253;60528;-68
2023/03/28 05:13:26;;;;;;;25.60;14.40;;;;;;;23.62;32.67;98246.22;108036;1252;74990;-65
2023/03/28 05:16:22;;;;;;;27.00;14.00;;;;;;;23.23;32.87;98240.27;108005;1253;71322;-68
2023/03/28 05:19:12;;;;;;;24.40;12.90;;;;;;;23.83;32.17;98241.38;108128;1253;73392;-68
2023/03/28 05:21:51;;;;;;;25.30;13.10;;;;;;;23.54;32.25;98249.15;108182;1253;63030;-67
2023/03/28 05:24:18;;;;;;;23.90;13.60;;;;;;;23.60;32.25;98247.37;108044;1253;61383;-66
2023/03/28 05:26:52;;;;;;;20.10;10.90;;;;;;;23.55;32.23;98246.98;108201;1253;74627;-66
2023/03/28 05:29:22;;;;;;;25.10;12.40;;;;;;;23.58;32.07;98240.65;108057;1254;71301;-67
2023/03/28 05:31:52;;;;;;;18.50;11.20;;;;;;;23.61;32.32;98237.84;108007;1254;73842;-66
2023/03/28 05:34:24;;;;;;;23.10;12.90;;;;;;;23.62;32.34;98239.61;108246;1252;61806;-66
2023/03/28 05:36:51;;;;;;;24.30;13.20;;;;;;;23.66;32.08;98235.13;108230;1254;60555;-66
2023/03/28 05:42:30;;;;;;;21.60;12.50;;;;;;;19.14;39.10;98248.38;104772;1291;600512;-67
2023/03/28 05:45:05;;;;;;;22.60;12.60;;;;;;;20.95;36.32;98247.09;107137;1268;61408;-68
2023/03/28 05:47:51;;;;;;;22.90;13.70;;;;;;;21.82;35.18;98238.65;107084;1267;61281;-67
2023/03/28 05:50:20;;;;;;;24.40;11.10;;;;;;;21.96;34.99;98235.94;107175;1267;73179;-65
2023/03/28 05:52:49;;;;;;;19.70;11.90;;;;;;;22.32;34.29;98228.45;107190;1269;70342;-67
2023/03/28 05:55:17;;;;;;;22.40;12.40;;;;;;;22.48;34.15;98228.20;107050;1266;135688;-68
2023/03/28 05:57:47;;;;;;;24.90;14.40;;;;;;;22.59;34.00;98228.59;107598;1259;61485;-65
2023/03/28 06:00:18;;;;;;;25.40;14.00;;;;;;;22.68;33.95;98227.52;107650;1260;61536;-66
2023/03/28 06:02:49;;;;;;;20.30;11.90;;;;;;;22.71;33.69;98221.58;107655;1260;73107;-67
2023/03/28 06:05:18;;;;;;;24.30;13.50;;;;;;;22.77;33.60;98216.61;107697;1260;70413;-68
2023/03/28 06:07:47;;;;;;;24.80;13.70;;;;;;;23.03;33.29;98214.05;107712;1260;73084;-68
2023/03/28 06:10:24;;;;;;;30.60;18.70;;;;;;;23.11;33.16;98214.69;107691;1260;62668;-68
2023/03/28 06:13:13;;;;;;;26.10;14.40;;;;;;;23.39;32.63;98209.71;107714;1260;61799;-67
2023/03/28 06:15:42;;;;;;;21.20;13.30;;;;;;;23.33;32.77;98210.30;107686;1263;74302;-69
2023/03/28 06:18:11;;;;;;;25.00;13.30;;;;;;;23.06;33.10;98206.73;107668;1260;69812;-68
2023/03/28 06:20:43;;;;;;;20.20;12.20;;;;;;;22.99;33.26;98198.42;107646;1260;71327;-68
2023/03/28 06:23:12;;;;;;;22.40;12.20;;;;;;;23.21;33.01;98191.62;107635;1259;61180;-67
2023/03/28 06:25:40;;;;;;;21.90;13.00;;;;;;;23.31;32.85;98182.21;107708;1260;60517;-68
2023/03/28 06:28:09;;;;;;;25.60;13.90;;;;;;;23.65;32.31;98178.06;107673;1260;73307;-69
2023/03/28 06:30:56;;;;;;;24.30;13.20;;;;;;;23.19;33.04;98177.23;107572;1260;70345;-69
2023/03/28 06:33:25;;;;;;;27.10;15.30;;;;;;;23.16;32.91;98169.40;107641;1260;71892;-69
2023/03/28 06:35:54;;;;;;;25.30;14.10;;;;;;;23.29;32.79;98164.92;107681;1260;62749;-69
2023/03/28 06:38:24;;;;;;;34.00;16.40;;;;;;;23.43;32.82;98160.96;107663;1258;61340;-68
2023/03/28 06:40:52;;;;;;;30.80;13.50;;;;;;;23.70;32.62;98158.73;107701;1260;71754;-67
2023/03/28 06:43:20;;;;;;;29.10;16.70;;;;;;;23.65;32.60;98155.55;107683;1260;71375;-67
2023/03/28 06:46:06;;;;;;;23.20;14.20;;;;;;;23.64;32.67;98144.56;107626;1259;73825;-69
2023/03/28 06:48:36;;;;;;;22.90;12.60;;;;;;;23.44;32.97;98143.62;107680;1262;60220;-66
2023/03/28 06:51:24;;;;;;;19.60;10.40;;;;;;;23.64;32.37;98139.90;107496;1259;61267;-68
2023/03/28 06:53:53;;;;;;;20.70;11.20;;;;;;;23.89;32.29;98139.98;107588;1260;73821;-67
2023/03/28 06:56:27;;;;;;;22.70;12.40;;;;;;;23.59;32.76;98135.54;107562;1260;71343;-67
2023/03/28 06:58:57;;;;;;;20.20;10.20;;;;;;;23.69;32.73;98133.20;107609;1260;73065;-68
2023/03/28 07:01:27;;;;;;;19.20;10.80;;;;;;;23.96;32.11;98132.71;107584;1260;63115;-68
2023/03/28 07:04:04;;;;;;;19.80;11.10;;;;;;;24.27;31.69;98129.05;107575;1260;61585;-66
2023/03/28 07:06:34;;;;;;;22.80;11.50;;;;;;;24.31;31.73;98124.90;107571;1260;73825;-68
2023/03/28 07:09:02;;;;;;;24.00;11.30;;;;;;;24.40;31.22;98120.93;107593;1260;71202;-67
2023/03/28 07:11:42;;;;;;;23.40;11.40;;;;;;;24.54;31.05;98116.73;107600;1260;71908;-67
2023/03/28 07:14:14;;;;;;;137.50;76.80;;;;;;;24.68;30.67;98112.92;107461;1260;61465;-68
2023/03/28 07:16:42;;;;;;;192.00;107.40;;;;;;;24.67;30.56;98109.80;107547;1260;60544;-67
2023/03/28 07:19:15;;;;;;;27.80;16.70;;;;;;;24.72;29.76;98101.15;107559;1260;74251;-68
2023/03/28 07:21:45;;;;;;;64.70;41.70;;;;;;;25.06;29.37;98094.98;107663;1260;70510;-68
2023/03/28 07:24:14;;;;;;;40.00;25.10;;;;;;;25.05;29.07;98090.88;107560;1260;73438;-68
2023/03/28 07:26:58;;;;;;;16.50;9.10;;;;;;;25.15;28.78;98090.52;107627;1260;62278;-69
2023/03/28 07:29:41;;;;;;;45.70;18.20;;;;;;;24.89;28.85;98097.28;107637;1260;61454;-69
2023/03/28 07:32:15;;;;;;;31.10;14.20;;;;;;;24.84;29.03;98101.35;107674;1265;74352;-67
2023/03/28 07:34:45;;;;;;;24.60;10.70;;;;;;;24.55;29.33;98105.27;107604;1260;70337;-67
2023/03/28 07:37:23;;;;;;;26.20;12.20;;;;;;;24.87;28.75;98109.95;107652;1260;72234;-69
2023/03/28 07:40:09;;;;;;;21.60;11.40;;;;;;;24.81;28.59;98103.23;107605;1260;59538;-68
2023/03/28 07:42:38;;;;;;;17.30;8.50;;;;;;;25.11;28.42;98100.90;107506;1260;60701;-69
2023/03/28 07:45:09;;;;;;;;;;;;;;;25.21;28.21;98098.79;107486;1265;74348;-67
2023/03/28 07:47:37;;;;;;;14.80;8.50;;;;;;;25.04;28.18;98105.08;107530;1259;71519;-67
2023/03/28 07:50:06;;;;;;;15.90;9.00;;;;;;;25.02;28.38;98096.77;107500;1259;72673;-70
2023/03/28 07:52:44;;;;;;;12.90;7.70;;;;;;;25.36;28.01;98095.76;107519;1260;60621;-68
2023/03/28 07:55:12;;;;;;;8.50;6.30;;;;;;;25.51;27.82;98101.91;107603;1260;60542;-68
2023/03/28 07:57:44;;;;;;;14.70;6.50;;;;;;;24.97;28.19;98100.77;107596;1260;74799;-68
2023/03/28 08:00:23;;;;;;;11.70;6.00;;;;;;;25.12;27.96;98105.65;107658;1260;71300;-68
2023/03/28 08:03:07;;;;;;;10.80;6.20;;;;;;;24.46;28.84;98099.55;107531;1260;73234;-67
2023/03/28 08:05:37;;;;;;;9.20;6.30;;;;;;;24.50;28.98;98101.98;107703;1260;61738;-68
2023/03/28 08:08:06;;;;;;;8.70;6.10;;;;;;;24.40;28.97;98098.73;107735;1260;59375;-67
2023/03/28 08:10:35;;;;;;;9.90;6.40;;;;;;;24.64;28.90;98097.52;107730;1259;72426;-67
2023/03/28 08:13:06;;;;;;;8.40;6.30;;;;;;;24.69;28.81;98099.42;107687;1260;70562;-67
2023/03/28 08:15:36;;;;;;;8.40;6.10;;;;;;;25.00;28.59;98093.04;107601;1259;72152;-68
2023/03/28 08:18:06;;;;;;;12.80;6.70;;;;;;;25.18;28.39;98090.70;107691;1258;63185;-66
2023/03/28 08:20:36;;;;;;;11.50;6.90;;;;;;;25.42;28.21;98084.71;107610;1259;60571;-68
2023/03/28 08:23:16;;;;;;;11.20;6.40;;;;;;;25.41;28.20;98085.62;107665;1260;74259;-68
2023/03/28 08:26:04;;;;;;;9.50;6.40;;;;;;;25.44;28.18;98080.04;107684;1260;72145;-69
2023/03/28 08:28:35;;;;;;;8.10;6.50;;;;;;;25.16;28.54;98080.07;107675;1260;71998;-68
2023/03/28 08:31:13;;;;;;;12.30;6.50;;;;;;;25.16;28.73;98073.61;107685;1260;60923;-67
2023/03/28 08:33:43;;;;;;;8.60;6.80;;;;;;;25.44;28.33;98076.10;107689;1259;61004;-68
2023/03/28 08:36:16;;;;;;;10.50;7.40;;;;;;;25.54;28.32;98073.45;107882;1259;74371;-66
2023/03/28 08:38:45;;;;;;;11.70;7.20;;;;;;;25.67;28.20;98073.18;107631;1260;71185;-68
2023/03/28 08:41:28;;;;;;;14.40;7.00;;;;;;;25.38;28.62;98074.77;107654;1260;72563;-69
2023/03/28 08:44:05;;;;;;;10.50;6.70;;;;;;;25.47;28.61;98078.69;107590;1260;61341;-68
2023/03/28 08:46:38;;;;;;;10.20;6.60;;;;;;;25.56;28.98;98081.45;107615;1259;59686;-68
2023/03/28 08:49:09;;;;;;;11.60;7.40;;;;;;;25.34;29.05;98085.67;107606;1260;72733;-68
2023/03/28 08:51:39;;;;;;;12.00;7.60;;;;;;;24.34;30.30;98093.80;107665;1260;71104;-68
2023/03/28 08:54:37;;;;;;;18.80;7.80;;;;;;;24.38;30.55;98096.21;107647;1260;72936;-67
2023/03/28 08:57:05;;;;;;;12.90;8.30;;;;;;;23.88;31.86;98099.13;107477;1260;62124;-68
2023/03/28 09:00:07;;;;;;;15.20;10.30;;;;;;;23.40;32.80;98100.52;107464;1260;60851;-68
2023/03/28 09:02:36;;;;;;;14.10;10.60;;;;;;;23.83;32.22;98101.23;107587;1259;72440;-69
2023/03/28 09:05:17;;;;;;;16.00;10.90;;;;;;;24.27;31.78;98100.23;107541;1260;71294;-69
2023/03/28 09:08:15;;;;;;;17.50;11.20;;;;;;;23.59;32.83;98097.59;107672;1260;73894;-68
2023/03/28 09:11:11;;;;;;;21.10;13.10;;;;;;;23.63;33.23;98099.38;107586;1259;60794;-68
2023/03/28 09:13:55;;;;;;;19.90;13.50;;;;;;;23.78;33.37;98099.13;107514;1260;60589;-69
2023/03/28 09:17:02;;;;;;;21.30;13.10;;;;;;;24.09;32.99;98100.45;107531;1259;73725;-68
2023/03/28 09:19:43;;;;;;;23.30;13.10;;;;;;;24.18;32.94;98103.14;107471;1262;70637;-68
2023/03/28 09:22:59;;;;;;;20.20;12.80;;;;;;;23.82;34.00;98101.67;107598;1260;72952;-67
2023/03/28 09:25:40;;;;;;;24.20;15.30;;;;;;;24.05;33.63;98096.16;107486;1260;63258;-68
2023/03/28 09:28:30;;;;;;;20.70;14.00;;;;;;;24.25;33.30;98088.81;107606;1260;60074;-68
2023/03/28 09:30:59;;;;;;;13.60;10.00;;;;;;;23.97;33.57;98082.84;107984;1256;72112;-68
2023/03/28 09:33:34;;;;;;;15.30;11.70;;;;;;;23.96;33.40;98081.07;107997;1257;71603;-68
2023/03/28 09:36:10;;;;;;;12.30;8.00;;;;;;;24.01;33.33;98077.92;107975;1259;72537;-69
2023/03/28 09:38:42;;;;;;;12.90;9.10;;;;;;;24.24;32.83;98077.20;107703;1256;60703;-67
2023/03/28 09:41:38;;;;;;;12.90;8.80;;;;;;;24.52;32.63;98079.34;107903;1256;60077;-68
2023/03/28 09:44:39;;;;;;;11.00;7.40;;;;;;;24.46;32.65;98076.03;107348;1256;73077;-69
2023/03/28 09:48:00;;;;;;;14.60;6.50;;;;;;;24.31;33.04;98075.90;107972;1256;71270;-69
2023/03/28 09:50:30;;;;;;;9.80;6.40;;;;;;;24.13;33.43;98075.27;107979;1257;73886;-69
2023/03/28 09:52:59;;;;;;;9.90;6.10;;;;;;;24.04;33.67;98079.47;108001;1257;59665;-70
2023/03/28 09:55:30;;;;;;;7.40;5.30;;;;;;;24.26;33.50;98077.48;108088;1255;61378;-70
2023/03/28 09:58:11;;;;;;;10.00;5.80;;;;;;;24.06;33.79;98079.33;108070;1257;72964;-68
2023/03/28 10:01:04;;;;;;;9.00;5.90;;;;;;;24.09;33.88;98077.23;108207;1254;69624;-68
2023/03/28 10:04:11;;;;;;;11.90;6.60;;;;;;;23.97;34.30;98081.02;108045;1259;72548;-68
2023/03/28 10:07:08;;;;;;;10.90;6.20;;;;;;;23.76;34.72;98077.32;108152;1259;61212;-69
2023/03/28 10:09:50;;;;;;;8.70;5.70;;;;;;;23.80;34.38;98075.07;108149;1254;60344;-69
2023/03/28 10:12:40;;;;;;;7.10;4.70;;;;;;;23.77;34.59;98074.94;108123;1254;74567;-68
2023/03/28 10:15:40;;;;;;;6.80;4.60;;;;;;;23.67;34.23;98074.14;107994;1259;70520;-70
2023/03/28 10:18:17;;;;;;;9.70;5.00;;;;;;;23.84;33.65;98070.11;107968;1259;72593;-68
2023/03/28 10:20:50;;;;;;;8.30;5.10;;;;;;;24.10;33.70;98067.41;108090;1259;60338;-69
2023/03/28 10:23:20;;;;;;;9.70;5.20;;;;;;;23.99;34.03;98062.14;108062;1254;61346;-69
2023/03/28 10:25:51;;;;;;;9.90;5.50;;;;;;;24.19;34.01;98065.84;107949;1261;73276;-69
2023/03/28 10:28:32;;;;;;;8.80;4.30;;;;;;;24.26;34.16;98062.27;108106;1257;68988;-67
2023/03/28 10:31:01;;;;;;;16.00;5.70;;;;;;;23.97;34.16;98060.59;107970;1254;73580;-69
2023/03/28 10:33:53;;;;;;;11.80;5.70;;;;;;;24.42;33.61;98058.73;107962;1257;63485;-69
2023/03/28 10:36:41;;;;;;;9.30;5.30;;;;;;;24.47;33.41;98055.84;108103;1256;59682;-67
2023/03/28 10:39:28;;;;;;;9.70;4.70;;;;;;;24.48;33.40;98056.43;108204;1254;75099;-68
2023/03/28 10:42:15;;;;;;;11.30;4.80;;;;;;;24.16;33.14;98059.42;108216;1260;70659;-68
2023/03/28 10:44:59;;;;;;;6.50;3.40;;;;;;;23.96;33.06;98054.20;108048;1254;72099;-69
2023/03/28 10:47:30;;;;;;;6.10;3.60;;;;;;;23.26;33.54;98052.17;107878;1254;62038;-68
2023/03/28 10:50:02;;;;;;;6.70;3.70;;;;;;;23.18;33.99;98049.70;108008;1254;61317;-68
2023/03/28 10:53:02;;;;;;;8.50;3.90;;;;;;;23.41;33.55;98045.65;108084;1255;74019;-69
2023/03/28 10:55:37;;;;;;;11.20;4.90;;;;;;;23.45;33.40;98044.48;108022;1260;71569;-70
2023/03/28 10:58:33;;;;;;;8.50;4.70;;;;;;;23.51;33.15;98039.14;107954;1260;74116;-69
2023/03/28 11:01:08;;;;;;;10.50;5.40;;;;;;;23.39;33.55;98035.38;108056;1257;61745;-69
2023/03/28 11:03:52;;;;;;;11.10;6.50;;;;;;;23.65;33.57;98032.02;108095;1255;62021;-69
2023/03/28 11:06:22;;;;;;;8.50;4.40;;;;;;;23.71;33.47;98029.07;108110;1254;74336;-68
2023/03/28 11:09:00;;;;;;;12.60;7.10;;;;;;;23.62;33.80;98028.86;108049;1254;70360;-68
2023/03/28 11:12:10;;;;;;;10.90;5.70;;;;;;;23.67;33.77;98031.63;108089;1259;73713;-68
2023/03/28 11:15:08;;;;;;;7.90;5.20;;;;;;;23.49;34.25;98023.88;108031;1254;60299;-69
2023/03/28 11:17:54;;;;;;;6.90;4.40;;;;;;;23.39;34.34;98018.45;107987;1254;60356;-69
2023/03/28 11:20:27;;;;;;;8.40;4.60;;;;;;;23.44;34.39;98016.76;108104;1254;73838;-68
2023/03/28 11:23:01;;;;;;;8.60;5.20;;;;;;;23.72;34.07;98012.95;107986;1255;71032;-69
2023/03/28 11:25:55;;;;;;;11.90;6.10;;;;;;;23.51;34.36;98009.20;108049;1254;72625;-69
2023/03/28 11:28:44;;;;;;;;;;;;;;;23.70;34.15;98010.02;108040;1254;61084;-68
2023/03/28 11:31:27;;;;;;;9.30;5.10;;;;;;;23.76;34.29;98010.77;108013;1254;60348;-67
2023/03/28 11:34:18;;;;;;;11.20;5.60;;;;;;;23.87;34.23;98010.91;108077;1260;73043;-69
2023/03/28 11:36:52;;;;;;;9.60;5.00;;;;;;;23.93;34.06;98008.55;107972;1254;69221;-66
2023/03/28 11:39:43;;;;;;;10.20;5.40;;;;;;;23.54;34.68;98002.34;108053;1254;74406;-67
2023/03/28 11:42:19;;;;;;;7.30;4.90;;;;;;;23.53;34.87;97996.18;108127;1255;61516;-68
2023/03/28 11:44:59;;;;;;;8.90;5.50;;;;;;;23.83;34.42;97999.58;107999;1260;60411;-67
2023/03/28 11:47:31;;;;;;;9.60;5.50;;;;;;;24.02;34.33;97999.71;107951;1254;72053;-68
2023/03/28 11:50:46;;;;;;;26.30;11.70;;;;;;;24.07;34.21;97993.83;107964;1260;71226;-67
2023/03/28 11:53:48;;;;;;;35.00;12.70;;;;;;;24.16;34.24;97988.31;107867;1254;73103;-68
2023/03/28 11:56:35;;;;;;;33.20;15.80;;;;;;;24.04;34.31;97991.42;107834;1257;60945;-69
2023/03/28 11:59:18;;;;;;;11.10;7.30;;;;;;;24.05;34.52;97993.08;107947;1259;61549;-68
2023/03/28 12:01:49;;;;;;;10.30;6.20;;;;;;;23.84;34.73;97986.38;107931;1256;73220;-68
2023/03/28 12:04:29;;;;;;;10.20;5.20;;;;;;;23.29;35.55;97982.14;107929;1258;69942;-68
2023/03/28 12:07:29;;;;;;;6.90;5.10;;;;;;;23.38;35.51;97980.90;107786;1256;72871;-69